Time,TemperatureF,DewpointF,PressureIn,WindDirection,WindDirectionDegrees,WindSpeedMPH,WindSpeedGustMPH,Humidity,HourlyPrecipIn,Conditions,Clouds,dailyrainin,SolarRadiationWatts/m^2,SoftwareType,DateUTC
2013-09-22 00:02:00,67.5,66.0,29.76,SSE,154,0.0,7.0,93,0.16,,,0.01,0,weatherlink.com 1.10,2013-09-22 04:02:00,
2013-09-22 00:17:00,67.2,65.0,29.75,East,80,2.0,7.0,93,0.27,,,0.12,0,weatherlink.com 1.10,2013-09-22 04:17:00,
2013-09-22 00:32:00,67.0,65.0,29.74,WSW,258,0.0,5.0,93,0.22,,,0.14,0,weatherlink.com 1.10,2013-09-22 04:32:00,
2013-09-22 00:47:00,66.8,65.0,29.74,SSE,155,0.0,5.0,94,0.21,,,0.17,0,weatherlink.com 1.10,2013-09-22 04:47:00,
2013-09-22 01:02:00,66.3,64.0,29.76,SW,229,0.0,5.0,93,0.21,,,0.22,0,weatherlink.com 1.10,2013-09-22 05:02:00,
2013-09-22 01:17:00,64.2,62.0,29.75,NE,47,0.0,3.0,92,0.16,,,0.28,0,weatherlink.com 1.10,2013-09-22 05:17:00,
2013-09-22 01:32:00,62.7,60.0,29.75,NNE,32,0.0,0.0,92,0.18,,,0.32,0,weatherlink.com 1.10,2013-09-22 05:32:00,
2013-09-22 01:47:00,62.2,60.0,29.75,North,360,0.0,0.0,92,0.19,,,0.36,0,weatherlink.com 1.10,2013-09-22 05:47:00,
2013-09-22 02:02:00,61.8,60.0,29.75,NE,39,0.0,1.0,93,0.18,,,0.41,0,weatherlink.com 1.10,2013-09-22 06:02:00,
2013-09-22 02:17:00,61.4,59.0,29.75,NW,310,0.0,1.0,93,0.16,,,0.44,0,weatherlink.com 1.10,2013-09-22 06:17:00,
2013-09-22 02:32:00,61.2,59.0,29.75,NW,310,0.0,1.0,93,0.15,,,0.47,0,weatherlink.com 1.10,2013-09-22 06:32:00,
2013-09-22 02:47:00,61.0,59.0,29.76,NW,310,0.0,0.0,93,0.18,,,0.54,0,weatherlink.com 1.10,2013-09-22 06:47:00,
2013-09-22 03:02:00,60.9,59.0,29.74,NW,309,0.0,0.0,93,0.17,,,0.58,0,weatherlink.com 1.10,2013-09-22 07:02:00,
2013-09-22 03:17:00,60.8,59.0,29.73,NW,309,0.0,0.0,94,0.16,,,0.60,0,weatherlink.com 1.10,2013-09-22 07:17:00,
2013-09-22 03:32:00,60.7,59.0,29.75,NW,309,0.0,0.0,94,0.14,,,0.61,0,weatherlink.com 1.10,2013-09-22 07:32:00,
2013-09-22 03:47:00,60.7,59.0,29.75,NW,309,0.0,0.0,94,0.06,,,0.61,0,weatherlink.com 1.10,2013-09-22 07:47:00,
2013-09-22 04:02:00,60.7,59.0,29.76,NW,309,0.0,0.0,94,0.03,,,0.61,0,weatherlink.com 1.10,2013-09-22 08:02:00,
2013-09-22 04:17:00,60.6,59.0,29.75,NW,309,0.0,0.0,94,0.01,,,0.61,0,weatherlink.com 1.10,2013-09-22 08:17:00,
2013-09-22 04:32:00,60.6,59.0,29.74,SSW,202,0.0,0.0,94,0.00,,,0.61,0,weatherlink.com 1.10,2013-09-22 08:32:00,
2013-09-22 04:47:00,60.6,59.0,29.75,SSW,211,0.0,1.0,94,0.00,,,0.61,0,weatherlink.com 1.10,2013-09-22 08:47:00,
2013-09-22 05:02:00,60.6,59.0,29.76,NNW,329,0.0,0.0,94,0.00,,,0.61,0,weatherlink.com 1.10,2013-09-22 09:02:00,
2013-09-22 05:17:00,60.6,59.0,29.77,NNW,329,0.0,0.0,94,0.01,,,0.62,0,weatherlink.com 1.10,2013-09-22 09:17:00,
2013-09-22 05:32:00,60.6,59.0,29.78,NW,326,0.0,0.0,94,0.01,,,0.62,0,weatherlink.com 1.10,2013-09-22 09:32:00,
2013-09-22 05:47:00,60.5,59.0,29.77,NW,309,0.0,1.0,94,0.01,,,0.62,0,weatherlink.com 1.10,2013-09-22 09:47:00,
2013-09-22 06:02:00,60.5,59.0,29.77,NE,42,0.0,1.0,94,0.01,,,0.62,0,weatherlink.com 1.10,2013-09-22 10:02:00,
2013-09-22 06:17:00,60.5,59.0,29.77,NE,36,0.0,0.0,94,0.00,,,0.62,0,weatherlink.com 1.10,2013-09-22 10:17:00,
2013-09-22 06:32:00,60.3,59.0,29.78,West,271,0.0,3.0,95,0.00,,,0.62,0,weatherlink.com 1.10,2013-09-22 10:32:00,
2013-09-22 06:47:00,60.1,59.0,29.78,West,265,0.0,1.0,95,0.00,,,0.62,0,weatherlink.com 1.10,2013-09-22 10:47:00,
2013-09-22 07:02:00,59.8,58.0,29.79,West,265,0.0,0.0,94,0.00,,,0.62,0,weatherlink.com 1.10,2013-09-22 11:02:00,
2013-09-22 07:17:00,59.6,58.0,29.79,ENE,74,0.0,1.0,95,0.00,,,0.62,5,weatherlink.com 1.10,2013-09-22 11:17:00,
2013-09-22 07:32:00,59.5,58.0,29.80,ENE,72,0.0,1.0,94,0.00,,,0.62,40,weatherlink.com 1.10,2013-09-22 11:32:00,
2013-09-22 07:47:00,59.3,58.0,29.80,WNW,296,0.0,2.0,94,0.00,,,0.62,16,weatherlink.com 1.10,2013-09-22 11:47:00,
2013-09-22 08:02:00,59.1,58.0,29.80,WNW,295,0.0,1.0,95,0.00,,,0.62,169,weatherlink.com 1.10,2013-09-22 12:02:00,
2013-09-22 08:18:00,60.0,59.0,29.80,WSW,257,0.0,2.0,95,0.00,,,0.62,241,weatherlink.com 1.10,2013-09-22 12:18:00,
2013-09-22 08:33:00,60.9,60.0,29.81,West,261,0.0,2.0,95,0.00,,,0.62,267,weatherlink.com 1.10,2013-09-22 12:33:00,
2013-09-22 08:48:00,61.3,60.0,29.82,WSW,256,1.0,1.0,95,0.00,,,0.62,315,weatherlink.com 1.10,2013-09-22 12:48:00,
2013-09-22 09:03:00,61.4,60.0,29.82,WNW,282,0.0,3.0,95,0.00,,,0.62,366,weatherlink.com 1.10,2013-09-22 13:03:00,
2013-09-22 09:18:00,61.8,60.0,29.82,West,277,0.0,4.0,94,0.00,,,0.62,415,weatherlink.com 1.10,2013-09-22 13:18:00,
2013-09-22 09:33:00,63.1,61.0,29.82,SSE,158,0.0,1.0,93,0.00,,,0.62,454,weatherlink.com 1.10,2013-09-22 13:33:00,
2013-09-22 09:48:00,64.1,60.0,29.82,NE,41,0.0,4.0,87,0.00,,,0.62,494,weatherlink.com 1.10,2013-09-22 13:48:00,
2013-09-22 10:03:00,65.3,60.0,29.83,South,179,1.0,2.0,82,0.00,,,0.62,536,weatherlink.com 1.10,2013-09-22 14:03:00,
2013-09-22 10:18:00,66.4,58.0,29.83,WNW,286,0.0,2.0,75,0.00,,,0.62,573,weatherlink.com 1.10,2013-09-22 14:18:00,
2013-09-22 10:33:00,66.2,56.0,29.83,NE,53,0.0,6.0,69,0.00,,,0.62,608,weatherlink.com 1.10,2013-09-22 14:33:00,
2013-09-22 10:48:00,66.3,56.0,29.83,SSW,207,3.0,4.0,70,0.00,,,0.62,149,weatherlink.com 1.10,2013-09-22 14:48:00,
2013-09-22 11:03:00,65.8,55.0,29.83,NNW,340,0.0,5.0,68,0.00,,,0.62,53,weatherlink.com 1.10,2013-09-22 15:03:00,
2013-09-22 11:18:00,65.0,54.0,29.83,NNE,18,3.0,9.0,68,0.00,,,0.62,47,weatherlink.com 1.10,2013-09-22 15:18:00,
2013-09-22 11:33:00,64.3,53.0,29.83,WNW,289,1.0,5.0,68,0.00,,,0.62,47,weatherlink.com 1.10,2013-09-22 15:33:00,
2013-09-22 11:48:00,64.1,52.0,29.84,South,176,0.0,4.0,66,0.00,,,0.62,51,weatherlink.com 1.10,2013-09-22 15:48:00,
2013-09-22 12:03:00,63.8,53.0,29.83,NE,42,2.0,5.0,69,0.00,,,0.62,54,weatherlink.com 1.10,2013-09-22 16:03:00,
2013-09-22 12:18:00,63.6,54.0,29.83,NE,46,0.0,1.0,70,0.00,,,0.62,90,weatherlink.com 1.10,2013-09-22 16:18:00,
2013-09-22 12:33:00,63.8,53.0,29.84,ENE,78,1.0,4.0,69,0.00,,,0.62,146,weatherlink.com 1.10,2013-09-22 16:33:00,
2013-09-22 12:48:00,64.3,53.0,29.84,NE,42,0.0,9.0,67,0.00,,,0.62,93,weatherlink.com 1.10,2013-09-22 16:48:00,
2013-09-22 13:03:00,64.2,52.0,29.84,NNW,342,0.0,7.0,64,0.00,,,0.62,95,weatherlink.com 1.10,2013-09-22 17:03:00,
2013-09-22 13:18:00,64.2,53.0,29.84,NNE,15,1.0,5.0,67,0.00,,,0.62,178,weatherlink.com 1.10,2013-09-22 17:18:00,
2013-09-22 13:33:00,64.7,51.0,29.84,NE,37,2.0,6.0,62,0.00,,,0.62,202,weatherlink.com 1.10,2013-09-22 17:33:00,
2013-09-22 13:48:00,64.3,52.0,29.84,NNE,18,0.0,7.0,64,0.00,,,0.62,239,weatherlink.com 1.10,2013-09-22 17:48:00,
2013-09-22 14:03:00,65.1,52.0,29.84,ESE,116,0.0,7.0,63,0.00,,,0.62,230,weatherlink.com 1.10,2013-09-22 18:03:00,
2013-09-22 14:18:00,65.7,53.0,29.84,North,355,1.0,9.0,63,0.00,,,0.62,912,weatherlink.com 1.10,2013-09-22 18:18:00,
2013-09-22 14:33:00,65.4,51.0,29.84,WNW,296,0.0,9.0,60,0.00,,,0.62,207,weatherlink.com 1.10,2013-09-22 18:33:00,
2013-09-22 14:48:00,65.0,51.0,29.84,NNE,19,0.0,5.0,61,0.00,,,0.62,668,weatherlink.com 1.10,2013-09-22 18:48:00,
2013-09-22 15:03:00,65.5,51.0,29.84,NNW,333,1.0,4.0,60,0.00,,,0.62,223,weatherlink.com 1.10,2013-09-22 19:03:00,
2013-09-22 15:18:00,64.8,50.0,29.84,NNE,13,0.0,6.0,59,0.00,,,0.62,269,weatherlink.com 1.10,2013-09-22 19:18:00,
2013-09-22 15:33:00,64.1,50.0,29.84,East,90,0.0,7.0,60,0.00,,,0.62,104,weatherlink.com 1.10,2013-09-22 19:33:00,
2013-09-22 15:48:00,63.5,51.0,29.85,NNE,14,0.0,4.0,64,0.00,,,0.62,220,weatherlink.com 1.10,2013-09-22 19:48:00,
2013-09-22 16:03:00,63.5,50.0,29.85,NW,316,7.0,7.0,62,0.00,,,0.62,77,weatherlink.com 1.10,2013-09-22 20:03:00,
2013-09-22 16:19:00,63.0,50.0,29.85,NNE,16,0.0,4.0,63,0.00,,,0.62,158,weatherlink.com 1.10,2013-09-22 20:19:00,
2013-09-22 16:34:00,62.8,51.0,29.85,West,277,0.0,5.0,66,0.00,,,0.62,114,weatherlink.com 1.10,2013-09-22 20:34:00,
2013-09-22 16:49:00,62.1,50.0,29.86,ENE,67,1.0,7.0,65,0.00,,,0.62,39,weatherlink.com 1.10,2013-09-22 20:49:00,
2013-09-22 17:04:00,61.5,50.0,29.86,SSW,204,0.0,2.0,66,0.00,,,0.62,25,weatherlink.com 1.10,2013-09-22 21:04:00,
2013-09-22 17:19:00,60.9,49.0,29.86,WNW,282,0.0,3.0,65,0.00,,,0.62,18,weatherlink.com 1.10,2013-09-22 21:19:00,
2013-09-22 17:34:00,60.3,49.0,29.87,South,180,0.0,2.0,67,0.00,,,0.62,33,weatherlink.com 1.10,2013-09-22 21:34:00,
2013-09-22 17:49:00,60.2,50.0,29.87,WNW,298,0.0,2.0,70,0.00,,,0.62,63,weatherlink.com 1.10,2013-09-22 21:49:00,
2013-09-22 18:04:00,60.4,51.0,29.87,SSW,210,0.0,3.0,71,0.00,,,0.62,42,weatherlink.com 1.10,2013-09-22 22:04:00,
2013-09-22 18:34:00,60.1,50.0,29.88,NNW,343,0.0,3.0,70,0.00,,,0.62,11,weatherlink.com 1.10,2013-09-22 22:34:00,
2013-09-22 18:49:00,59.8,49.0,29.89,SSW,208,0.0,5.0,68,0.00,,,0.62,0,weatherlink.com 1.10,2013-09-22 22:49:00,
2013-09-22 19:04:00,59.2,49.0,29.90,NW,323,0.0,1.0,69,0.00,,,0.62,0,weatherlink.com 1.10,2013-09-22 23:04:00,
2013-09-22 19:19:00,58.4,49.0,29.91,NNW,327,0.0,5.0,72,0.00,,,0.62,0,weatherlink.com 1.10,2013-09-22 23:19:00,
2013-09-22 19:34:00,58.0,49.0,29.91,NNE,17,1.0,3.0,71,0.00,,,0.62,0,weatherlink.com 1.10,2013-09-22 23:34:00,
2013-09-22 19:48:00,57.6,48.0,29.92,North,355,0.0,4.0,71,0.00,,,0.62,0,weatherlink.com 1.10,2013-09-22 23:48:00,
2013-09-22 20:04:00,57.3,48.0,29.93,North,10,0.0,2.0,71,0.00,,,0.62,0,weatherlink.com 1.10,2013-09-23 00:04:00,
2013-09-22 20:19:00,56.9,48.0,29.93,SW,232,0.0,2.0,72,0.00,,,0.62,0,weatherlink.com 1.10,2013-09-23 00:19:00,
2013-09-22 20:34:00,56.3,47.0,29.94,East,96,0.0,1.0,72,0.00,,,0.62,0,weatherlink.com 1.10,2013-09-23 00:34:00,
2013-09-22 20:49:00,55.9,47.0,29.95,East,96,0.0,1.0,72,0.00,,,0.62,0,weatherlink.com 1.10,2013-09-23 00:49:00,
2013-09-22 21:04:00,55.4,47.0,29.95,ENE,61,0.0,0.0,73,0.00,,,0.62,0,weatherlink.com 1.10,2013-09-23 01:04:00,
2013-09-22 21:19:00,54.7,46.0,29.95,NE,50,0.0,1.0,73,0.00,,,0.62,0,weatherlink.com 1.10,2013-09-23 01:19:00,
2013-09-22 21:34:00,54.2,46.0,29.96,NE,50,0.0,0.0,74,0.00,,,0.62,0,weatherlink.com 1.10,2013-09-23 01:34:00,
2013-09-22 21:49:00,53.8,46.0,29.97,NE,40,0.0,1.0,75,0.00,,,0.62,0,weatherlink.com 1.10,2013-09-23 01:49:00,
2013-09-22 22:04:00,53.5,46.0,29.97,NNW,336,0.0,1.0,76,0.00,,,0.62,0,weatherlink.com 1.10,2013-09-23 02:04:00,
2013-09-22 22:19:00,53.3,46.0,29.98,WNW,297,0.0,1.0,76,0.00,,,0.62,0,weatherlink.com 1.10,2013-09-23 02:19:00,
2013-09-22 22:34:00,52.7,45.0,29.99,ENE,68,0.0,1.0,76,0.00,,,0.62,0,weatherlink.com 1.10,2013-09-23 02:34:00,
2013-09-22 22:49:00,52.3,45.0,29.99,North,349,0.0,0.0,77,0.00,,,0.62,0,weatherlink.com 1.10,2013-09-23 02:49:00,
2013-09-22 23:04:00,52.1,45.0,29.99,NNW,344,0.0,1.0,77,0.00,,,0.62,0,weatherlink.com 1.10,2013-09-23 03:04:00,
2013-09-22 23:19:00,51.8,45.0,29.99,SW,236,0.0,2.0,77,0.00,,,0.62,0,weatherlink.com 1.10,2013-09-23 03:19:00,
2013-09-22 23:34:00,51.3,44.0,29.99,North,360,0.0,1.0,76,0.00,,,0.62,0,weatherlink.com 1.10,2013-09-23 03:34:00,
2013-09-22 23:49:00,50.9,44.0,29.99,WSW,246,0.0,2.0,76,0.00,,,0.62,0,weatherlink.com 1.10,2013-09-23 03:49:00,